Time;durP1;ratioP1;P1;durP2;ratioP2;P2;SDS_P1;SDS_P2;PMS_P1;PMS_P2;Temp;Humidity;BMP_temperature;BMP_pressure;BME280_temperature;BME280_humidity;BME280_pressure;Samples;Min_cycle;Max_cycle;Signal;HPM_P1;HPM_P2
2022/11/05 00:10:21;;;;;;;29.63;4.82;;;;;;;;;;5030086;28;20048;-54
2022/11/05 00:18:19;;;;;;;42.80;6.43;;;;;;;;;;5030850;28;20095;-48
2022/11/05 00:20:46;;;;;;;40.70;6.00;;;;;;;;;;5030718;28;20041;-51
2022/11/05 00:26:05;;;;;;;56.13;6.13;;;;;;;;;;5029667;28;20044;-50
2022/11/05 00:28:33;;;;;;;43.58;6.00;;;;;;;;;;5028585;28;20491;-52
2022/11/05 00:31:01;;;;;;;53.65;6.82;;;;;;;;;;5029973;28;20134;-49
2022/11/05 00:33:28;;;;;;;48.08;6.68;;;;;;;;;;5030205;28;20111;-52
2022/11/05 00:35:55;;;;;;;43.20;6.75;;;;;;;;;;5026572;28;20492;-60
2022/11/05 00:38:22;;;;;;;58.67;7.15;;;;;;;;;;5028241;28;20492;-53
2022/11/05 00:40:49;;;;;;;49.65;6.43;;;;;;;;;;5030608;28;20029;-50
2022/11/05 00:46:02;;;;;;;43.88;6.93;;;;;;;;;;5030448;28;20449;-53
2022/11/05 00:51:14;;;;;;;57.47;8.20;;;;;;;;;;5029266;28;20049;-52
2022/11/05 00:53:41;;;;;;;48.15;6.68;;;;;;;;;;5029290;28;20102;-54
2022/11/05 00:56:08;;;;;;;37.70;6.15;;;;;;;;;;5028840;28;20476;-51
2022/11/05 00:58:35;;;;;;;37.20;6.72;;;;;;;;;;5028949;28;20033;-50
2022/11/05 01:01:02;;;;;;;32.47;5.57;;;;;;;;;;5028684;28;20544;-56
2022/11/05 01:03:31;;;;;;;31.55;6.35;;;;;;;;;;5029114;28;20079;-55
2022/11/05 01:05:59;;;;;;;33.42;6.43;;;;;;;;;;5029687;28;20036;-54
2022/11/05 01:08:27;;;;;;;39.95;7.40;;;;;;;;;;5026847;28;20107;-56
2022/11/05 01:10:56;;;;;;;38.95;7.45;;;;;;;;;;5028045;28;20383;-55
2022/11/05 01:13:27;;;;;;;43.67;7.38;;;;;;;;;;5028744;28;20480;-53
2022/11/05 01:15:55;;;;;;;34.30;6.15;;;;;;;;;;5029378;28;20032;-51
2022/11/05 01:18:22;;;;;;;38.58;6.65;;;;;;;;;;5029528;28;20091;-49
2022/11/05 01:20:50;;;;;;;38.20;6.88;;;;;;;;;;5027164;28;20045;-53
2022/11/05 01:23:17;;;;;;;40.47;6.13;;;;;;;;;;5029329;28;20025;-50
2022/11/05 01:25:44;;;;;;;32.25;6.03;;;;;;;;;;5029133;28;20028;-51
2022/11/05 01:28:11;;;;;;;31.90;6.38;;;;;;;;;;5029747;28;20037;-54
2022/11/05 01:30:38;;;;;;;29.00;5.20;;;;;;;;;;5029184;28;20033;-53
2022/11/05 01:33:05;;;;;;;31.02;5.60;;;;;;;;;;5028292;28;20021;-53
2022/11/05 01:35:32;;;;;;;32.78;6.00;;;;;;;;;;5028619;28;20080;-54
2022/11/05 01:37:59;;;;;;;29.00;6.30;;;;;;;;;;5030329;22;20046;-56
2022/11/05 01:40:26;;;;;;;29.88;5.78;;;;;;;;;;5010637;28;20054;-55
2022/11/05 01:42:53;;;;;;;30.92;5.85;;;;;;;;;;5012908;28;20113;-56
2022/11/05 01:45:22;;;;;;;25.05;5.70;;;;;;;;;;5014758;28;20502;-57
2022/11/05 01:47:56;;;;;;;33.80;6.40;;;;;;;;;;5014546;28;20073;-57
2022/11/05 01:50:33;;;;;;;25.30;5.13;;;;;;;;;;5014829;28;20073;-56
2022/11/05 01:53:19;;;;;;;26.58;5.60;;;;;;;;;;5014401;28;20033;-53
2022/11/05 01:55:49;;;;;;;31.23;5.32;;;;;;;;;;5002619;28;20062;-58
2022/11/05 01:58:21;;;;;;;20.17;5.20;;;;;;;;;;5014272;28;20030;-54
2022/11/05 02:00:48;;;;;;;25.73;5.23;;;;;;;;;;5013812;28;20034;-57
2022/11/05 02:03:16;;;;;;;24.02;5.00;;;;;;;;;;5014707;28;20022;-58
2022/11/05 02:05:44;;;;;;;32.53;5.45;;;;;;;;;;5014218;28;20030;-58
2022/11/05 02:08:13;;;;;;;22.00;4.78;;;;;;;;;;5014231;28;20025;-56
2022/11/05 02:10:40;;;;;;;20.63;4.95;;;;;;;;;;5014802;28;20033;-57
2022/11/05 02:13:07;;;;;;;30.27;5.05;;;;;;;;;;5014779;28;20026;-57
2022/11/05 02:15:41;;;;;;;22.58;4.57;;;;;;;;;;5015074;28;20050;-56
2022/11/05 02:18:15;;;;;;;27.67;5.75;;;;;;;;;;5014477;28;20156;-53
2022/11/05 02:21:05;;;;;;;27.88;4.43;;;;;;;;;;5013539;28;20116;-53
2022/11/05 02:23:47;;;;;;;26.67;4.75;;;;;;;;;;5004066;28;20121;-55
2022/11/05 02:26:24;;;;;;;26.48;4.82;;;;;;;;;;5014079;28;20128;-55
2022/11/05 02:29:00;;;;;;;23.08;4.95;;;;;;;;;;5012168;28;20029;-55
2022/11/05 02:31:40;;;;;;;19.42;4.40;;;;;;;;;;5012179;28;20061;-56
2022/11/05 02:34:11;;;;;;;13.98;4.03;;;;;;;;;;5012321;28;20026;-54
2022/11/05 02:36:38;;;;;;;20.15;4.30;;;;;;;;;;5011554;28;20111;-53
2022/11/05 02:39:23;;;;;;;17.50;3.72;;;;;;;;;;5012338;28;20026;-55
2022/11/05 02:41:59;;;;;;;24.85;4.28;;;;;;;;;;5011161;28;20026;-55
2022/11/05 02:44:35;;;;;;;24.58;4.80;;;;;;;;;;5010574;28;20026;-56
2022/11/05 02:47:08;;;;;;;20.50;4.43;;;;;;;;;;5012808;28;20029;-55
2022/11/05 02:49:42;;;;;;;24.10;4.90;;;;;;;;;;5013617;28;20034;-54
2022/11/05 02:52:15;;;;;;;24.45;4.40;;;;;;;;;;5014149;28;20518;-51
2022/11/05 02:55:02;;;;;;;20.98;3.97;;;;;;;;;;5013025;28;20033;-54
2022/11/05 02:57:29;;;;;;;29.48;3.83;;;;;;;;;;5001639;28;20482;-52
2022/11/05 03:00:06;;;;;;;19.55;4.53;;;;;;;;;;5014090;28;20026;-54
2022/11/05 03:02:34;;;;;;;26.95;4.95;;;;;;;;;;5013721;28;20053;-55
2022/11/05 03:05:01;;;;;;;17.95;3.97;;;;;;;;;;5013955;28;20122;-56
2022/11/05 03:07:44;;;;;;;16.08;3.78;;;;;;;;;;4995760;28;20053;-55
2022/11/05 03:10:24;;;;;;;16.75;4.05;;;;;;;;;;5013765;28;20034;-53
2022/11/05 03:12:56;;;;;;;19.08;4.05;;;;;;;;;;5013772;28;20083;-54
2022/11/05 03:15:41;;;;;;;20.58;3.47;;;;;;;;;;4995746;28;20037;-55
2022/11/05 03:18:08;;;;;;;17.98;3.97;;;;;;;;;;5012953;28;20030;-57
2022/11/05 03:20:48;;;;;;;17.17;3.72;;;;;;;;;;5013482;28;20056;-54
2022/11/05 03:23:18;;;;;;;18.80;3.33;;;;;;;;;;5013376;28;20030;-56
2022/11/05 03:26:05;;;;;;;21.25;3.58;;;;;;;;;;5013798;28;20438;-57
2022/11/05 03:28:36;;;;;;;21.55;4.15;;;;;;;;;;5013002;28;20034;-56
2022/11/05 03:31:04;;;;;;;24.67;4.33;;;;;;;;;;5013473;28;20026;-52
2022/11/05 03:33:33;;;;;;;14.65;3.40;;;;;;;;;;5013198;28;20049;-52
2022/11/05 03:36:05;;;;;;;17.02;2.97;;;;;;;;;;5013220;28;20038;-50
2022/11/05 03:38:38;;;;;;;13.45;3.25;;;;;;;;;;5013024;28;20128;-52
2022/11/05 03:41:07;;;;;;;18.85;3.20;;;;;;;;;;5013235;28;20072;-52
2022/11/05 03:43:36;;;;;;;16.67;3.38;;;;;;;;;;5012994;28;20029;-50
2022/11/05 03:46:23;;;;;;;17.15;3.15;;;;;;;;;;5013032;28;20075;-54
2022/11/05 03:48:52;;;;;;;14.73;2.95;;;;;;;;;;5012769;28;20041;-54
2022/11/05 03:51:28;;;;;;;17.40;3.42;;;;;;;;;;5013051;28;20026;-54
2022/11/05 03:53:59;;;;;;;19.45;3.00;;;;;;;;;;5012904;28;20068;-53
2022/11/05 03:56:29;;;;;;;16.47;3.00;;;;;;;;;;4995067;28;20403;-51
2022/11/05 03:58:57;;;;;;;13.57;2.90;;;;;;;;;;5012811;28;20068;-52
2022/11/05 04:01:25;;;;;;;17.90;2.83;;;;;;;;;;5012919;28;20503;-51
2022/11/05 04:03:52;;;;;;;20.40;3.55;;;;;;;;;;5012608;28;20047;-52
2022/11/05 04:14:34;;;;;;;16.05;2.92;;;;;;;;;;5012441;28;20403;-51
2022/11/05 04:17:08;;;;;;;12.02;3.08;;;;;;;;;;5012545;28;20037;-55
2022/11/05 04:25:07;;;;;;;24.65;3.08;;;;;;;;;;5012700;28;20041;-53
2022/11/05 04:27:34;;;;;;;14.30;2.83;;;;;;;;;;5012237;28;20103;-53
2022/11/05 04:30:22;;;;;;;20.25;2.78;;;;;;;;;;5012663;28;20029;-53
2022/11/05 04:33:21;;;;;;;14.65;2.67;;;;;;;;;;5012322;28;20119;-52
2022/11/05 04:35:49;;;;;;;19.98;3.15;;;;;;;;;;4979411;28;20069;-53
2022/11/05 04:38:18;;;;;;;22.80;2.83;;;;;;;;;;5012111;28;20042;-50
2022/11/05 04:40:46;;;;;;;16.42;2.42;;;;;;;;;;5012373;28;20033;-52
2022/11/05 04:43:17;;;;;;;11.30;2.80;;;;;;;;;;5012201;28;20072;-53
2022/11/05 04:45:44;;;;;;;16.08;3.05;;;;;;;;;;5012049;28;20120;-54
2022/11/05 04:48:11;;;;;;;18.30;2.67;;;;;;;;;;5012323;28;20034;-52
2022/11/05 04:50:39;;;;;;;16.20;2.55;;;;;;;;;;4994560;28;20499;-51
2022/11/05 04:53:06;;;;;;;15.50;2.95;;;;;;;;;;5012042;28;20030;-52
2022/11/05 04:55:33;;;;;;;12.48;2.50;;;;;;;;;;5011979;28;20067;-50
2022/11/05 04:58:00;;;;;;;10.80;2.35;;;;;;;;;;5011748;28;20077;-51
2022/11/05 05:00:27;;;;;;;17.80;2.50;;;;;;;;;;5011898;28;20460;-51
2022/11/05 05:02:53;;;;;;;13.23;2.65;;;;;;;;;;5012149;28;20065;-51
2022/11/05 05:05:21;;;;;;;14.70;2.40;;;;;;;;;;5011964;28;20022;-53
2022/11/05 05:07:48;;;;;;;11.77;2.45;;;;;;;;;;5011684;28;20496;-55
2022/11/05 05:10:15;;;;;;;16.27;2.50;;;;;;;;;;5011962;28;20476;-52
2022/11/05 05:12:42;;;;;;;11.35;2.45;;;;;;;;;;5012013;28;20034;-55
2022/11/05 05:15:09;;;;;;;10.85;2.78;;;;;;;;;;5011962;28;20037;-49
2022/11/05 05:17:36;;;;;;;13.05;2.20;;;;;;;;;;5012631;28;20041;-55
2022/11/05 05:22:52;;;;;;;11.38;1.98;;;;;;;;;;5016226;28;20056;-53
2022/11/05 05:25:19;;;;;;;8.40;2.33;;;;;;;;;;5015944;28;20530;-52
2022/11/05 05:27:46;;;;;;;12.65;2.30;;;;;;;;;;5015710;28;20379;-53
2022/11/05 05:30:13;;;;;;;11.60;2.80;;;;;;;;;;5015831;28;20038;-53
2022/11/05 05:32:40;;;;;;;11.63;2.35;;;;;;;;;;4997745;28;20415;-51
2022/11/05 05:35:07;;;;;;;13.52;2.35;;;;;;;;;;5015632;28;20510;-52
2022/11/05 05:37:35;;;;;;;12.20;2.70;;;;;;;;;;5015250;28;20086;-53
2022/11/05 05:40:02;;;;;;;10.40;2.63;;;;;;;;;;5015692;28;20026;-51
2022/11/05 05:42:28;;;;;;;11.15;1.90;;;;;;;;;;5015657;28;20069;-53
2022/11/05 05:44:55;;;;;;;12.30;2.08;;;;;;;;;;5015704;28;20038;-55
2022/11/05 05:47:22;;;;;;;11.02;2.22;;;;;;;;;;5015357;28;20144;-55
2022/11/05 05:49:49;;;;;;;10.05;2.33;;;;;;;;;;5015325;28;20022;-52
2022/11/05 05:52:16;;;;;;;11.13;2.22;;;;;;;;;;5015442;28;20030;-52
2022/11/05 05:54:43;;;;;;;9.88;1.88;;;;;;;;;;5015487;28;20454;-50
2022/11/05 05:57:10;;;;;;;9.38;1.98;;;;;;;;;;5015014;28;20037;-50
2022/11/05 05:59:37;;;;;;;15.38;1.90;;;;;;;;;;5008457;28;20030;-52
2022/11/05 06:02:04;;;;;;;12.18;2.50;;;;;;;;;;5018610;28;20057;-53
2022/11/05 06:04:31;;;;;;;12.25;1.88;;;;;;;;;;5015093;28;20032;-54
2022/11/05 06:06:58;;;;;;;11.35;2.38;;;;;;;;;;5014710;28;20120;-55
2022/11/05 06:09:25;;;;;;;9.25;2.15;;;;;;;;;;5014994;28;20044;-54
2022/11/05 06:11:52;;;;;;;8.10;1.95;;;;;;;;;;5015238;28;20036;-51
2022/11/05 06:14:19;;;;;;;10.15;1.83;;;;;;;;;;5015062;28;20068;-54
2022/11/05 06:16:46;;;;;;;5.88;1.58;;;;;;;;;;5014985;28;20034;-54
2022/11/05 06:19:13;;;;;;;16.42;2.13;;;;;;;;;;5014915;28;20029;-53
2022/11/05 06:21:40;;;;;;;10.82;2.13;;;;;;;;;;5015053;28;20092;-57
2022/11/05 06:24:07;;;;;;;13.57;2.10;;;;;;;;;;5014661;28;20088;-51
2022/11/05 06:26:34;;;;;;;8.32;2.03;;;;;;;;;;5014897;28;20570;-52
2022/11/05 06:29:01;;;;;;;14.85;2.08;;;;;;;;;;5013598;28;20033;-54
2022/11/05 06:31:28;;;;;;;8.85;1.92;;;;;;;;;;5014869;28;20057;-54
2022/11/05 06:33:54;;;;;;;11.27;1.85;;;;;;;;;;5014833;28;20076;-53
2022/11/05 06:36:21;;;;;;;8.50;1.95;;;;;;;;;;5014022;28;20511;-53
2022/11/05 06:38:48;;;;;;;7.68;1.90;;;;;;;;;;5006464;28;20152;-54
2022/11/05 06:41:15;;;;;;;8.70;1.58;;;;;;;;;;5014541;28;20045;-53
2022/11/05 06:43:43;;;;;;;6.28;1.60;;;;;;;;;;5014738;28;20041;-51
2022/11/05 06:46:10;;;;;;;8.55;2.00;;;;;;;;;;5014464;28;20049;-54
2022/11/05 06:48:38;;;;;;;7.03;1.67;;;;;;;;;;5014686;28;20056;-53
2022/11/05 06:51:06;;;;;;;8.52;1.83;;;;;;;;;;5014680;28;20177;-49
2022/11/05 06:53:33;;;;;;;10.85;1.92;;;;;;;;;;5014515;28;20392;-51
2022/11/05 06:56:06;;;;;;;5.97;1.67;;;;;;;;;;5014215;28;20033;-54
2022/11/05 06:58:34;;;;;;;8.75;1.98;;;;;;;;;;5014270;28;20037;-51
2022/11/05 07:01:10;;;;;;;7.63;1.88;;;;;;;;;;5014352;28;20506;-53
2022/11/05 07:03:38;;;;;;;9.88;1.70;;;;;;;;;;5012275;28;20561;-55
2022/11/05 07:06:06;;;;;;;7.82;1.70;;;;;;;;;;5002679;28;20021;-54
2022/11/05 07:08:37;;;;;;;7.10;1.80;;;;;;;;;;5014042;28;20041;-55
2022/11/05 07:11:04;;;;;;;7.22;1.77;;;;;;;;;;5014097;28;20136;-51
2022/11/05 07:13:31;;;;;;;8.05;1.60;;;;;;;;;;5014248;28;20033;-52
2022/11/05 07:15:58;;;;;;;8.38;1.58;;;;;;;;;;5013836;28;20471;-52
2022/11/05 07:18:25;;;;;;;12.63;1.90;;;;;;;;;;5014160;28;20026;-49
2022/11/05 07:20:52;;;;;;;9.20;1.92;;;;;;;;;;5013962;28;20026;-53
2022/11/05 07:23:19;;;;;;;7.07;1.63;;;;;;;;;;5014136;28;20176;-51
2022/11/05 07:25:46;;;;;;;10.13;1.80;;;;;;;;;;5013626;28;20026;-55
2022/11/05 07:28:13;;;;;;;5.53;1.50;;;;;;;;;;5013854;28;20022;-51
2022/11/05 07:30:40;;;;;;;9.27;1.70;;;;;;;;;;5013721;28;20076;-53
2022/11/05 07:33:07;;;;;;;6.82;1.67;;;;;;;;;;5013883;28;20121;-54
2022/11/05 07:35:34;;;;;;;9.98;1.77;;;;;;;;;;5013815;28;20036;-54
2022/11/05 07:38:01;;;;;;;4.97;1.25;;;;;;;;;;5013150;28;20049;-50
2022/11/05 07:40:29;;;;;;;4.90;1.20;;;;;;;;;;5013454;28;20041;-55
2022/11/05 07:42:57;;;;;;;3.67;1.45;;;;;;;;;;5013651;28;20061;-52
2022/11/05 07:45:25;;;;;;;5.72;1.40;;;;;;;;;;5013771;28;20033;-54
2022/11/05 07:47:54;;;;;;;6.00;1.65;;;;;;;;;;5013446;28;20037;-52
2022/11/05 07:50:22;;;;;;;4.55;1.45;;;;;;;;;;5013464;28;20028;-52
2022/11/05 07:52:50;;;;;;;8.75;1.42;;;;;;;;;;5013448;28;20081;-55
2022/11/05 07:55:17;;;;;;;5.90;1.48;;;;;;;;;;5013456;28;20128;-50
2022/11/05 07:57:46;;;;;;;6.38;1.50;;;;;;;;;;5013335;28;20034;-54
2022/11/05 08:00:14;;;;;;;4.93;1.50;;;;;;;;;;5013362;28;20026;-52
2022/11/05 08:02:42;;;;;;;6.25;1.25;;;;;;;;;;5013328;28;20045;-52
2022/11/05 08:05:10;;;;;;;6.22;1.30;;;;;;;;;;5013284;28;20396;-52
2022/11/05 08:07:37;;;;;;;5.03;1.40;;;;;;;;;;4995592;28;20431;-53
2022/11/05 08:10:04;;;;;;;6.78;1.42;;;;;;;;;;5013274;28;20026;-55
2022/11/05 08:12:32;;;;;;;6.80;1.40;;;;;;;;;;5013089;28;20488;-52
2022/11/05 08:14:59;;;;;;;4.70;1.25;;;;;;;;;;5013222;28;20038;-51
2022/11/05 08:17:26;;;;;;;4.65;1.38;;;;;;;;;;5012947;28;20116;-54
2022/11/05 08:19:53;;;;;;;5.07;1.30;;;;;;;;;;5013030;28;20076;-52
2022/11/05 08:22:20;;;;;;;6.35;1.17;;;;;;;;;;5013311;28;20427;-49
2022/11/05 08:24:47;;;;;;;3.75;1.10;;;;;;;;;;5013093;28;20022;-55
2022/11/05 08:27:14;;;;;;;4.43;1.30;;;;;;;;;;5012830;28;20033;-53
2022/11/05 08:29:41;;;;;;;4.15;1.20;;;;;;;;;;5012946;28;20022;-56
2022/11/05 08:32:08;;;;;;;9.75;1.55;;;;;;;;;;5012855;28;20025;-52
2022/11/05 08:34:35;;;;;;;3.92;1.20;;;;;;;;;;5012552;28;20033;-56
2022/11/05 08:37:02;;;;;;;4.30;1.27;;;;;;;;;;5012668;28;20506;-54
2022/11/05 08:39:29;;;;;;;4.70;1.23;;;;;;;;;;5012636;28;20034;-52
2022/11/05 08:41:56;;;;;;;4.32;1.23;;;;;;;;;;5012728;28;20057;-56
2022/11/05 08:44:23;;;;;;;7.30;1.20;;;;;;;;;;5012598;28;20032;-51
2022/11/05 08:46:50;;;;;;;6.68;1.23;;;;;;;;;;5012621;28;20064;-53
2022/11/05 08:49:17;;;;;;;5.50;1.20;;;;;;;;;;5012655;28;20034;-56
2022/11/05 08:51:44;;;;;;;4.82;1.30;;;;;;;;;;5012141;28;20067;-51
2022/11/05 08:54:11;;;;;;;3.22;1.23;;;;;;;;;;5012161;28;20026;-51
2022/11/05 08:56:38;;;;;;;8.95;1.98;;;;;;;;;;5012161;28;20388;-53
2022/11/05 08:59:05;;;;;;;6.28;1.10;;;;;;;;;;5012348;28;20045;-56
2022/11/05 09:01:33;;;;;;;4.82;1.30;;;;;;;;;;5012352;28;20030;-52
2022/11/05 09:04:00;;;;;;;3.72;1.17;;;;;;;;;;5012093;28;20037;-52
2022/11/05 09:06:27;;;;;;;6.40;1.20;;;;;;;;;;5012129;28;20041;-55
2022/11/05 09:08:54;;;;;;;4.53;1.52;;;;;;;;;;5012113;28;20458;-51
2022/11/05 09:11:21;;;;;;;5.13;1.20;;;;;;;;;;5012235;28;20087;-52
2022/11/05 09:13:48;;;;;;;3.60;1.20;;;;;;;;;;5012327;28;20042;-49
2022/11/05 09:16:35;;;;;;;6.55;1.33;;;;;;;;;;5012016;28;20113;-54
2022/11/05 09:19:03;;;;;;;5.63;1.33;;;;;;;;;;5011794;28;20403;-52
2022/11/05 09:21:31;;;;;;;6.72;1.02;;;;;;;;;;5012177;28;20029;-54
2022/11/05 09:23:57;;;;;;;5.75;1.55;;;;;;;;;;5011952;28;20026;-56
2022/11/05 09:26:24;;;;;;;4.20;1.30;;;;;;;;;;5011900;28;20029;-54
2022/11/05 09:28:52;;;;;;;9.05;1.50;;;;;;;;;;5012041;28;20038;-53
2022/11/05 09:31:19;;;;;;;7.20;1.45;;;;;;;;;;5011902;28;20038;-51
2022/11/05 09:33:46;;;;;;;7.28;1.08;;;;;;;;;;4994121;28;20395;-51
2022/11/05 09:36:13;;;;;;;5.18;1.23;;;;;;;;;;5011618;28;20032;-56
2022/11/05 09:38:40;;;;;;;5.78;1.20;;;;;;;;;;5011688;28;20400;-50
2022/11/05 09:41:27;;;;;;;5.65;1.58;;;;;;;;;;5011805;28;20037;-51
2022/11/05 09:43:56;;;;;;;7.40;1.48;;;;;;;;;;5011745;28;20026;-49
2022/11/05 09:46:28;;;;;;;6.00;1.38;;;;;;;;;;5011638;28;20061;-53
2022/11/05 09:48:55;;;;;;;;;;;;;;;;;;5012104;28;20036;-52
2022/11/05 09:51:22;;;;;;;5.20;1.40;;;;;;;;;;5011641;28;19917;-52
2022/11/05 09:53:49;;;;;;;5.18;1.20;;;;;;;;;;5011705;28;20022;-54
2022/11/05 09:56:22;;;;;;;4.35;1.10;;;;;;;;;;5011428;28;20539;-51
2022/11/05 09:58:48;;;;;;;;;;;;;;;;;;5012040;28;20365;-53
2022/11/05 10:01:26;;;;;;;6.13;1.40;;;;;;;;;;5011811;28;19909;-51
2022/11/05 10:04:00;;;;;;;7.38;1.77;;;;;;;;;;5012926;28;20144;-54
2022/11/05 10:06:28;;;;;;;7.70;1.35;;;;;;;;;;5015178;28;20022;-50
2022/11/05 10:08:59;;;;;;;6.10;1.40;;;;;;;;;;5015009;28;20036;-53
2022/11/05 10:11:39;;;;;;;6.45;1.50;;;;;;;;;;5015296;28;20034;-52
2022/11/05 10:14:34;;;;;;;7.07;1.48;;;;;;;;;;5014955;28;20466;-51
2022/11/05 10:17:04;;;;;;;4.30;1.30;;;;;;;;;;5002075;28;20077;-53
2022/11/05 10:19:39;;;;;;;4.82;1.48;;;;;;;;;;5015084;28;20176;-53
2022/11/05 10:22:11;;;;;;;14.55;1.70;;;;;;;;;;5014926;28;20056;-55
2022/11/05 10:24:40;;;;;;;7.37;1.63;;;;;;;;;;5015013;28;20487;-53
2022/11/05 10:27:13;;;;;;;7.00;1.40;;;;;;;;;;5014862;28;20719;-53
2022/11/05 10:29:42;;;;;;;7.75;1.85;;;;;;;;;;5014869;28;20029;-51
2022/11/05 10:32:10;;;;;;;9.68;1.67;;;;;;;;;;5014813;28;20030;-52
2022/11/05 10:34:38;;;;;;;9.70;1.90;;;;;;;;;;5014554;28;20116;-54
2022/11/05 10:37:06;;;;;;;7.47;1.65;;;;;;;;;;5014312;28;20026;-48
2022/11/05 10:39:33;;;;;;;7.18;1.60;;;;;;;;;;5014531;28;20065;-52
2022/11/05 10:42:18;;;;;;;7.00;1.50;;;;;;;;;;5014701;28;20028;-51
2022/11/05 10:44:47;;;;;;;10.50;1.65;;;;;;;;;;5014448;28;20022;-53
2022/11/05 10:47:32;;;;;;;11.18;1.48;;;;;;;;;;5014317;28;20034;-55
2022/11/05 10:50:00;;;;;;;13.25;1.70;;;;;;;;;;5014446;28;20499;-53
2022/11/05 10:52:28;;;;;;;58.22;3.83;;;;;;;;;;5013914;28;20042;-54
2022/11/05 10:54:58;;;;;;;14.10;1.98;;;;;;;;;;4995843;28;20065;-55
2022/11/05 10:57:35;;;;;;;14.15;2.28;;;;;;;;;;5013822;28;20037;-53
2022/11/05 11:00:14;;;;;;;19.08;2.35;;;;;;;;;;5014273;28;20026;-54
2022/11/05 11:02:42;;;;;;;17.02;2.90;;;;;;;;;;5013961;28;20508;-57
2022/11/05 11:05:10;;;;;;;19.67;2.65;;;;;;;;;;5013836;28;20025;-55
2022/11/05 11:07:37;;;;;;;22.92;2.63;;;;;;;;;;5013878;28;20060;-55
2022/11/05 11:10:05;;;;;;;36.03;3.50;;;;;;;;;;5013960;28;20026;-55
2022/11/05 11:12:36;;;;;;;29.70;3.45;;;;;;;;;;5014042;28;20116;-55
2022/11/05 11:15:03;;;;;;;25.58;3.58;;;;;;;;;;4995528;28;20391;-54
2022/11/05 11:17:32;;;;;;;22.02;2.80;;;;;;;;;;5012524;28;20054;-53
2022/11/05 11:20:17;;;;;;;25.80;3.55;;;;;;;;;;5011927;28;20506;-55
2022/11/05 11:22:58;;;;;;;28.80;3.67;;;;;;;;;;5011186;28;20038;-55
2022/11/05 11:25:27;;;;;;;27.42;3.30;;;;;;;;;;5012170;28;20022;-54
2022/11/05 11:27:54;;;;;;;25.48;3.20;;;;;;;;;;5011726;28;20500;-56
2022/11/05 11:30:21;;;;;;;20.52;2.78;;;;;;;;;;5011161;28;20099;-55
2022/11/05 11:32:49;;;;;;;28.38;3.67;;;;;;;;;;5011571;28;20029;-54
2022/11/05 11:35:25;;;;;;;29.95;3.67;;;;;;;;;;5012670;28;20056;-58
2022/11/05 11:37:54;;;;;;;30.52;3.13;;;;;;;;;;5010576;28;20066;-57
2022/11/05 11:40:22;;;;;;;29.80;3.38;;;;;;;;;;5011372;28;20037;-58
2022/11/05 11:42:55;;;;;;;31.33;3.90;;;;;;;;;;5012524;28;20072;-57
2022/11/05 11:45:24;;;;;;;28.38;3.35;;;;;;;;;;5012559;28;20030;-57
2022/11/05 11:47:51;;;;;;;36.85;4.50;;;;;;;;;;5012485;28;20156;-57
2022/11/05 11:50:41;;;;;;;28.77;4.00;;;;;;;;;;5011826;28;20030;-58
2022/11/05 11:53:20;;;;;;;31.35;3.30;;;;;;;;;;4999904;28;20030;-58
2022/11/05 11:56:05;;;;;;;27.50;3.65;;;;;;;;;;5010064;28;20030;-57
2022/11/05 11:58:40;;;;;;;35.50;3.92;;;;;;;;;;5013007;28;20042;-58
2022/11/05 12:01:19;;;;;;;25.75;2.97;;;;;;;;;;5013209;28;20428;-58
2022/11/05 12:03:51;;;;;;;30.63;3.97;;;;;;;;;;5012881;28;20034;-59
2022/11/05 12:06:27;;;;;;;37.58;4.15;;;;;;;;;;5013030;28;20415;-59
2022/11/05 12:08:59;;;;;;;29.83;3.53;;;;;;;;;;5012964;28;20026;-59
2022/11/05 12:11:33;;;;;;;36.33;4.18;;;;;;;;;;5012957;28;20022;-58
2022/11/05 12:14:03;;;;;;;32.45;4.22;;;;;;;;;;5012814;28;20121;-58
2022/11/05 12:16:54;;;;;;;24.58;3.70;;;;;;;;;;5012658;28;20050;-59
2022/11/05 12:19:21;;;;;;;33.95;3.67;;;;;;;;;;4995020;28;20033;-59
2022/11/05 12:21:51;;;;;;;31.50;3.97;;;;;;;;;;5012758;28;20057;-58
2022/11/05 12:24:30;;;;;;;35.25;3.80;;;;;;;;;;5012678;28;20033;-58
2022/11/05 12:27:05;;;;;;;24.33;3.25;;;;;;;;;;5011870;28;20491;-58
2022/11/05 12:29:32;;;;;;;20.92;3.03;;;;;;;;;;5012542;28;20491;-58
2022/11/05 12:32:14;;;;;;;30.35;4.05;;;;;;;;;;5012818;28;20044;-59
2022/11/05 12:35:05;;;;;;;28.55;3.65;;;;;;;;;;5012499;28;20052;-58
2022/11/05 12:37:50;;;;;;;25.42;3.50;;;;;;;;;;5012147;28;20054;-59
2022/11/05 12:40:20;;;;;;;26.77;3.50;;;;;;;;;;5012443;28;20025;-57
2022/11/05 12:43:10;;;;;;;26.10;3.30;;;;;;;;;;5012419;28;20025;-58
2022/11/05 12:45:43;;;;;;;23.60;3.50;;;;;;;;;;4984615;28;20449;-58
2022/11/05 12:48:10;;;;;;;31.58;3.92;;;;;;;;;;5012398;28;20129;-58
2022/11/05 12:50:36;;;;;;;31.88;3.75;;;;;;;;;;5012287;28;20403;-59
2022/11/05 12:53:03;;;;;;;26.35;3.55;;;;;;;;;;5012227;28;20116;-57
2022/11/05 12:55:37;;;;;;;40.88;4.43;;;;;;;;;;5012153;28;20034;-58
2022/11/05 12:58:10;;;;;;;38.33;4.68;;;;;;;;;;5012329;28;20092;-57
2022/11/05 13:00:38;;;;;;;34.33;4.10;;;;;;;;;;5012143;28;20487;-58
2022/11/05 13:03:27;;;;;;;26.45;3.67;;;;;;;;;;5012153;28;20495;-58
2022/11/05 13:06:12;;;;;;;34.97;3.92;;;;;;;;;;5012163;28;20032;-59
2022/11/05 13:08:45;;;;;;;35.72;4.28;;;;;;;;;;5012306;28;20424;-59
2022/11/05 13:11:18;;;;;;;32.30;3.30;;;;;;;;;;5004023;28;20113;-58
2022/11/05 13:13:54;;;;;;;35.72;4.57;;;;;;;;;;5007329;28;20045;-58
2022/11/05 13:16:27;;;;;;;45.25;4.50;;;;;;;;;;5011954;28;20038;-58
2022/11/05 13:19:14;;;;;;;37.25;4.53;;;;;;;;;;5011977;28;20127;-59
2022/11/05 13:21:42;;;;;;;33.25;5.18;;;;;;;;;;4984541;28;20045;-59
2022/11/05 13:24:16;;;;;;;27.05;4.13;;;;;;;;;;5011978;28;20141;-58
2022/11/05 13:26:49;;;;;;;43.38;4.53;;;;;;;;;;5011902;28;20034;-58
2022/11/05 13:29:34;;;;;;;39.17;4.57;;;;;;;;;;5011914;28;20113;-58
2022/11/05 13:32:22;;;;;;;35.72;4.40;;;;;;;;;;5012027;28;20034;-58
2022/11/05 13:34:49;;;;;;;37.28;4.68;;;;;;;;;;5011878;28;20353;-58
2022/11/05 13:40:07;;;;;;;36.13;5.07;;;;;;;;;;5015500;28;20483;-59
2022/11/05 13:42:52;;;;;;;35.38;4.60;;;;;;;;;;4997917;28;20434;-57
2022/11/05 13:45:38;;;;;;;24.92;4.32;;;;;;;;;;5015679;28;20026;-58
2022/11/05 13:48:23;;;;;;;36.10;3.97;;;;;;;;;;4997659;28;20022;-58
2022/11/05 13:50:50;;;;;;;30.70;4.55;;;;;;;;;;5015580;28;20021;-58
2022/11/05 13:53:38;;;;;;;42.28;4.55;;;;;;;;;;5015381;28;20030;-58
2022/11/05 13:56:05;;;;;;;36.30;4.68;;;;;;;;;;5015231;28;20050;-58
2022/11/05 13:58:52;;;;;;;28.98;4.50;;;;;;;;;;5015307;28;20038;-58
2022/11/05 14:01:29;;;;;;;41.42;4.50;;;;;;;;;;4985306;28;20091;-58
2022/11/05 14:03:56;;;;;;;37.50;4.25;;;;;;;;;;5015224;28;20041;-58
2022/11/05 14:06:27;;;;;;;39.28;5.22;;;;;;;;;;5015176;28;20033;-58
2022/11/05 14:09:07;;;;;;;36.58;4.55;;;;;;;;;;5015107;28;20026;-57
2022/11/05 14:11:40;;;;;;;49.80;5.93;;;;;;;;;;5015157;28;20392;-58
2022/11/05 14:14:09;;;;;;;36.22;5.20;;;;;;;;;;5015019;28;20033;-59
2022/11/05 14:16:51;;;;;;;24.30;4.57;;;;;;;;;;5014899;28;20116;-59
2022/11/05 14:19:18;;;;;;;31.23;5.03;;;;;;;;;;5015062;28;20190;-58
2022/11/05 14:21:46;;;;;;;47.22;5.78;;;;;;;;;;5015047;28;20033;-58
2022/11/05 14:24:22;;;;;;;43.78;5.35;;;;;;;;;;5014831;28;20036;-58
2022/11/05 14:27:01;;;;;;;47.80;6.85;;;;;;;;;;5014837;28;20030;-58
2022/11/05 14:29:42;;;;;;;49.47;6.60;;;;;;;;;;5014800;28;20030;-59
2022/11/05 14:32:18;;;;;;;54.42;7.57;;;;;;;;;;5014873;28;20026;-58
2022/11/05 14:35:03;;;;;;;46.08;7.22;;;;;;;;;;5014600;28;20476;-59
2022/11/05 14:37:51;;;;;;;54.70;6.88;;;;;;;;;;5014346;28;20041;-59
2022/11/05 14:40:21;;;;;;;65.03;8.70;;;;;;;;;;5014727;28;20741;-58
2022/11/05 14:42:52;;;;;;;52.67;7.03;;;;;;;;;;5014552;28;20038;-58
2022/11/05 14:45:26;;;;;;;59.70;7.97;;;;;;;;;;5014407;28;20542;-58
2022/11/05 14:48:04;;;;;;;56.50;8.05;;;;;;;;;;5014348;28;20034;-58
2022/11/05 14:50:41;;;;;;;53.15;7.35;;;;;;;;;;5013471;28;20037;-58
2022/11/05 14:53:24;;;;;;;63.42;8.38;;;;;;;;;;5014284;28;20022;-59
2022/11/05 14:56:01;;;;;;;60.63;7.72;;;;;;;;;;5014236;28;20080;-58
2022/11/05 14:58:34;;;;;;;65.93;8.23;;;;;;;;;;5014281;28;20030;-58
2022/11/05 15:01:00;;;;;;;;;;;;;;;;;;5014703;28;20060;-58
2022/11/05 15:03:35;;;;;;;69.45;9.27;;;;;;;;;;5014196;28;19913;-59
2022/11/05 15:06:04;;;;;;;55.35;8.63;;;;;;;;;;5014120;28;20512;-58
2022/11/05 15:08:51;;;;;;;57.78;8.20;;;;;;;;;;4996463;28;20125;-58
2022/11/05 15:11:18;;;;;;;53.97;8.60;;;;;;;;;;5014302;28;20587;-58
2022/11/05 15:13:55;;;;;;;56.03;8.65;;;;;;;;;;5013889;28;20034;-58
2022/11/05 15:16:26;;;;;;;55.63;8.50;;;;;;;;;;5013715;28;20115;-58
2022/11/05 15:18:54;;;;;;;53.00;7.38;;;;;;;;;;5013854;28;20030;-58
2022/11/05 15:21:22;;;;;;;55.38;8.10;;;;;;;;;;5013881;28;20476;-58
2022/11/05 15:23:50;;;;;;;57.38;8.85;;;;;;;;;;5013727;28;20500;-59
2022/11/05 15:26:20;;;;;;;58.60;7.95;;;;;;;;;;5013594;28;20037;-59
2022/11/05 15:28:48;;;;;;;46.88;7.55;;;;;;;;;;5013711;28;20096;-59
2022/11/05 15:31:15;;;;;;;60.08;8.65;;;;;;;;;;5013455;28;20168;-58
2022/11/05 15:33:45;;;;;;;57.00;8.82;;;;;;;;;;5013558;28;20120;-58
2022/11/05 15:36:25;;;;;;;55.83;9.38;;;;;;;;;;5013370;28;20515;-58
2022/11/05 15:38:53;;;;;;;52.30;7.65;;;;;;;;;;5013404;28;20137;-58
2022/11/05 15:41:33;;;;;;;55.95;9.07;;;;;;;;;;5013436;28;20810;-58